TimeAKDT,TemperatureF,Dew PointF,Humidity,Sea Level PressureIn,VisibilityMPH,Wind Direction,Wind SpeedMPH,Gust SpeedMPH,PrecipitationIn,Events,Conditions,WindDirDegrees,DateUTC
12:56 AM,32.9,31.1,93,29.80,10.0,NE,12.7,-,N/A,,Clear,50,2013-08-22 08:56:00
1:56 AM,32.0,30.0,92,29.80,10.0,NE,12.7,-,N/A,,Clear,40,2013-08-22 09:56:00
2:56 AM,32.0,29.1,89,29.80,10.0,NE,15.0,-,N/A,,Clear,40,2013-08-22 10:56:00
3:56 AM,31.1,29.1,92,29.79,10.0,NE,13.8,-,N/A,,Clear,40,2013-08-22 11:56:00
4:56 AM,31.1,28.0,88,29.79,10.0,NE,13.8,-,N/A,,Clear,50,2013-08-22 12:56:00
5:56 AM,31.1,28.0,88,29.78,10.0,NE,11.5,-,N/A,,Clear,50,2013-08-22 13:56:00
6:56 AM,31.1,29.1,92,29.78,10.0,NE,12.7,-,N/A,,Clear,50,2013-08-22 14:56:00
7:56 AM,31.1,28.0,88,29.78,10.0,NE,13.8,-,N/A,,Clear,50,2013-08-22 15:56:00
8:56 AM,32.0,29.1,89,29.78,10.0,NE,15.0,-,N/A,,Clear,40,2013-08-22 16:56:00
10:56 AM,34.9,31.1,86,29.77,10.0,NE,17.3,-,N/A,,Scattered Clouds,50,2013-08-22 18:56:00
11:04 AM,35.6,30.2,81,29.76,10.0,NE,19.6,-,N/A,,Mostly Cloudy,50,2013-08-22 19:04:00
11:56 AM,36.0,31.1,82,29.77,10.0,NE,18.4,-,N/A,,Mostly Cloudy,40,2013-08-22 19:56:00
12:04 PM,35.6,30.2,81,29.75,10.0,NE,19.6,-,N/A,,Scattered Clouds,50,2013-08-22 20:04:00
12:17 PM,35.6,32.0,87,29.76,10.0,NE,17.3,-,N/A,,Mostly Cloudy,50,2013-08-22 20:17:00
12:56 PM,36.9,32.0,83,29.77,10.0,NE,18.4,-,N/A,,Mostly Cloudy,40,2013-08-22 20:56:00
1:56 PM,38.8,32.0,76,29.77,10.0,NE,15.0,-,N/A,,Partly Cloudy,40,2013-08-22 21:56:00
2:56 PM,41.9,32.9,70,29.77,10.0,ENE,16.1,-,N/A,,Clear,60,2013-08-22 22:56:00
3:56 PM,43.9,34.0,68,29.77,10.0,NE,16.1,-,N/A,,Clear,50,2013-08-22 23:56:00
4:56 PM,41.0,36.0,82,29.76,10.0,North,21.9,-,N/A,,Clear,10,2013-08-23 00:56:00
5:56 PM,41.9,36.9,82,29.77,10.0,North,20.7,-,N/A,,Clear,10,2013-08-23 01:56:00
6:56 PM,39.9,36.0,86,29.77,10.0,NNE,20.7,-,N/A,,Clear,20,2013-08-23 02:56:00
7:56 PM,39.9,34.9,82,29.78,10.0,NNE,20.7,-,N/A,,Clear,20,2013-08-23 03:56:00
8:56 PM,39.9,32.9,76,29.79,10.0,NNE,18.4,-,N/A,,Clear,20,2013-08-23 04:56:00
9:56 PM,37.9,30.0,73,29.81,10.0,NNE,15.0,-,N/A,,Clear,20,2013-08-23 05:56:00
10:56 PM,36.0,31.1,82,29.82,10.0,NNE,11.5,-,N/A,,Clear,30,2013-08-23 06:56:00
11:56 PM,36.0,32.9,89,29.84,10.0,NNE,10.4,-,N/A,,Clear,30,2013-08-23 07:56:00